sensor_id;sensor_type;location;lat;lon;timestamp;P1;durP1;ratioP1;P2;durP2;ratioP2
30818;SDS011;17546;42.674;23.284;2023-01-09T00:01:27;73.45;;;30.05;;
30818;SDS011;17546;42.674;23.284;2023-01-09T00:03:55;69.68;;;29.65;;
30818;SDS011;17546;42.674;23.284;2023-01-09T00:06:20;66.75;;;28.50;;
30818;SDS011;17546;42.674;23.284;2023-01-09T00:08:46;64.20;;;26.70;;
30818;SDS011;17546;42.674;23.284;2023-01-09T00:11:11;67.90;;;26.48;;
30818;SDS011;17546;42.674;23.284;2023-01-09T00:13:37;64.00;;;27.45;;
30818;SDS011;17546;42.674;23.284;2023-01-09T00:16:06;66.93;;;27.33;;
30818;SDS011;17546;42.674;23.284;2023-01-09T00:18:32;60.42;;;25.90;;
30818;SDS011;17546;42.674;23.284;2023-01-09T00:20:59;70.50;;;27.13;;
30818;SDS011;17546;42.674;23.284;2023-01-09T00:23:26;65.55;;;27.60;;
30818;SDS011;17546;42.674;23.284;2023-01-09T00:26:33;64.30;;;25.55;;
30818;SDS011;17546;42.674;23.284;2023-01-09T00:28:42;63.92;;;25.60;;
30818;SDS011;17546;42.674;23.284;2023-01-09T00:31:08;63.78;;;25.13;;
30818;SDS011;17546;42.674;23.284;2023-01-09T00:33:47;57.03;;;25.30;;
30818;SDS011;17546;42.674;23.284;2023-01-09T00:36:19;58.75;;;24.27;;
30818;SDS011;17546;42.674;23.284;2023-01-09T00:38:44;63.72;;;24.35;;
30818;SDS011;17546;42.674;23.284;2023-01-09T00:41:10;57.20;;;23.73;;
30818;SDS011;17546;42.674;23.284;2023-01-09T00:43:42;58.30;;;24.10;;
30818;SDS011;17546;42.674;23.284;2023-01-09T00:46:11;59.38;;;24.00;;
30818;SDS011;17546;42.674;23.284;2023-01-09T00:48:37;61.33;;;23.27;;
30818;SDS011;17546;42.674;23.284;2023-01-09T00:51:05;50.28;;;23.00;;
30818;SDS011;17546;42.674;23.284;2023-01-09T00:53:32;53.47;;;23.02;;
30818;SDS011;17546;42.674;23.284;2023-01-09T00:56:02;59.83;;;22.58;;
30818;SDS011;17546;42.674;23.284;2023-01-09T00:58:32;53.85;;;22.20;;
30818;SDS011;17546;42.674;23.284;2023-01-09T01:00:59;60.85;;;22.15;;
30818;SDS011;17546;42.674;23.284;2023-01-09T01:03:25;53.42;;;22.23;;
30818;SDS011;17546;42.674;23.284;2023-01-09T01:05:51;49.58;;;21.98;;
30818;SDS011;17546;42.674;23.284;2023-01-09T01:08:36;60.25;;;23.30;;
30818;SDS011;17546;42.674;23.284;2023-01-09T01:11:04;54.95;;;22.23;;
30818;SDS011;17546;42.674;23.284;2023-01-09T01:13:33;59.15;;;22.92;;
30818;SDS011;17546;42.674;23.284;2023-01-09T01:40:10;54.30;;;20.45;;
30818;SDS011;17546;42.674;23.284;2023-01-09T01:42:36;51.83;;;21.13;;
30818;SDS011;17546;42.674;23.284;2023-01-09T01:52:59;59.10;;;22.95;;
30818;SDS011;17546;42.674;23.284;2023-01-09T01:55:26;57.45;;;22.05;;
30818;SDS011;17546;42.674;23.284;2023-01-09T01:57:53;49.22;;;22.13;;
30818;SDS011;17546;42.674;23.284;2023-01-09T02:00:22;50.22;;;22.02;;
30818;SDS011;17546;42.674;23.284;2023-01-09T02:02:52;49.13;;;21.90;;
30818;SDS011;17546;42.674;23.284;2023-01-09T02:05:18;55.22;;;22.08;;
30818;SDS011;17546;42.674;23.284;2023-01-09T02:07:43;52.15;;;21.25;;
30818;SDS011;17546;42.674;23.284;2023-01-09T02:10:09;48.13;;;21.13;;
30818;SDS011;17546;42.674;23.284;2023-01-09T02:12:34;52.70;;;21.88;;
30818;SDS011;17546;42.674;23.284;2023-01-09T02:15:07;51.25;;;20.83;;
30818;SDS011;17546;42.674;23.284;2023-01-09T02:17:52;55.97;;;21.95;;
30818;SDS011;17546;42.674;23.284;2023-01-09T02:20:39;52.03;;;22.05;;
30818;SDS011;17546;42.674;23.284;2023-01-09T02:31:30;50.70;;;21.42;;
30818;SDS011;17546;42.674;23.284;2023-01-09T02:34:04;47.75;;;21.63;;
30818;SDS011;17546;42.674;23.284;2023-01-09T02:42:25;52.70;;;21.45;;
30818;SDS011;17546;42.674;23.284;2023-01-09T02:44:53;47.65;;;22.05;;
30818;SDS011;17546;42.674;23.284;2023-01-09T02:49:52;50.75;;;21.38;;
30818;SDS011;17546;42.674;23.284;2023-01-09T03:00:48;47.05;;;21.10;;
30818;SDS011;17546;42.674;23.284;2023-01-09T03:06:31;51.58;;;22.00;;
30818;SDS011;17546;42.674;23.284;2023-01-09T03:09:07;50.33;;;21.67;;
30818;SDS011;17546;42.674;23.284;2023-01-09T03:11:41;56.38;;;22.40;;
30818;SDS011;17546;42.674;23.284;2023-01-09T03:14:21;46.45;;;21.52;;
30818;SDS011;17546;42.674;23.284;2023-01-09T03:16:51;55.55;;;23.60;;
30818;SDS011;17546;42.674;23.284;2023-01-09T03:19:21;49.25;;;22.60;;
30818;SDS011;17546;42.674;23.284;2023-01-09T03:21:50;58.30;;;22.63;;
30818;SDS011;17546;42.674;23.284;2023-01-09T05:17:54;49.15;;;22.30;;
30818;SDS011;17546;42.674;23.284;2023-01-09T05:20:19;49.92;;;23.00;;
30818;SDS011;17546;42.674;23.284;2023-01-09T05:22:45;54.40;;;23.88;;
30818;SDS011;17546;42.674;23.284;2023-01-09T05:25:10;59.50;;;24.17;;
30818;SDS011;17546;42.674;23.284;2023-01-09T05:27:36;52.20;;;23.48;;
30818;SDS011;17546;42.674;23.284;2023-01-09T05:30:01;54.30;;;22.08;;
30818;SDS011;17546;42.674;23.284;2023-01-09T05:32:27;50.88;;;22.23;;
30818;SDS011;17546;42.674;23.284;2023-01-09T05:34:52;60.72;;;24.15;;
30818;SDS011;17546;42.674;23.284;2023-01-09T05:37:18;50.15;;;22.85;;
30818;SDS011;17546;42.674;23.284;2023-01-09T05:39:43;56.60;;;22.77;;
30818;SDS011;17546;42.674;23.284;2023-01-09T05:42:09;54.55;;;23.70;;
30818;SDS011;17546;42.674;23.284;2023-01-09T05:44:34;46.65;;;23.00;;
30818;SDS011;17546;42.674;23.284;2023-01-09T05:47:00;57.58;;;24.15;;
30818;SDS011;17546;42.674;23.284;2023-01-09T05:49:25;62.08;;;27.17;;
30818;SDS011;17546;42.674;23.284;2023-01-09T05:51:51;58.42;;;28.27;;
30818;SDS011;17546;42.674;23.284;2023-01-09T05:54:16;74.60;;;32.45;;
30818;SDS011;17546;42.674;23.284;2023-01-09T05:56:42;76.25;;;33.28;;
30818;SDS011;17546;42.674;23.284;2023-01-09T05:59:07;75.97;;;31.30;;
30818;SDS011;17546;42.674;23.284;2023-01-09T06:01:32;70.57;;;33.65;;
30818;SDS011;17546;42.674;23.284;2023-01-09T06:03:58;81.68;;;33.08;;
30818;SDS011;17546;42.674;23.284;2023-01-09T06:06:23;73.82;;;35.22;;
30818;SDS011;17546;42.674;23.284;2023-01-09T06:08:49;89.50;;;39.03;;
30818;SDS011;17546;42.674;23.284;2023-01-09T06:11:15;95.10;;;39.50;;
30818;SDS011;17546;42.674;23.284;2023-01-09T06:13:41;92.55;;;42.08;;
30818;SDS011;17546;42.674;23.284;2023-01-09T06:16:06;87.25;;;39.17;;
30818;SDS011;17546;42.674;23.284;2023-01-09T06:18:32;93.00;;;40.42;;
30818;SDS011;17546;42.674;23.284;2023-01-09T06:20:57;87.65;;;40.15;;
30818;SDS011;17546;42.674;23.284;2023-01-09T06:23:22;85.65;;;39.88;;
30818;SDS011;17546;42.674;23.284;2023-01-09T06:25:48;87.70;;;40.70;;
30818;SDS011;17546;42.674;23.284;2023-01-09T06:28:13;96.35;;;41.72;;
30818;SDS011;17546;42.674;23.284;2023-01-09T06:30:39;90.47;;;41.38;;
30818;SDS011;17546;42.674;23.284;2023-01-09T06:33:04;88.85;;;38.42;;
30818;SDS011;17546;42.674;23.284;2023-01-09T06:35:29;93.95;;;38.55;;
30818;SDS011;17546;42.674;23.284;2023-01-09T06:37:55;91.60;;;39.08;;
30818;SDS011;17546;42.674;23.284;2023-01-09T06:40:21;79.10;;;37.88;;
30818;SDS011;17546;42.674;23.284;2023-01-09T06:42:46;93.93;;;37.55;;
30818;SDS011;17546;42.674;23.284;2023-01-09T06:45:12;90.25;;;37.45;;
30818;SDS011;17546;42.674;23.284;2023-01-09T06:47:38;78.40;;;36.03;;
30818;SDS011;17546;42.674;23.284;2023-01-09T06:50:04;86.03;;;35.70;;
30818;SDS011;17546;42.674;23.284;2023-01-09T06:52:30;70.75;;;34.55;;
30818;SDS011;17546;42.674;23.284;2023-01-09T06:54:55;90.93;;;41.80;;
30818;SDS011;17546;42.674;23.284;2023-01-09T06:57:20;113.13;;;47.95;;
30818;SDS011;17546;42.674;23.284;2023-01-09T06:59:46;98.07;;;42.50;;
30818;SDS011;17546;42.674;23.284;2023-01-09T07:02:16;107.15;;;43.15;;
30818;SDS011;17546;42.674;23.284;2023-01-09T07:04:43;92.38;;;42.30;;
30818;SDS011;17546;42.674;23.284;2023-01-09T07:07:08;101.07;;;42.92;;
30818;SDS011;17546;42.674;23.284;2023-01-09T07:09:34;88.90;;;41.65;;
30818;SDS011;17546;42.674;23.284;2023-01-09T07:12:00;99.78;;;41.45;;
30818;SDS011;17546;42.674;23.284;2023-01-09T07:14:25;95.55;;;40.47;;
30818;SDS011;17546;42.674;23.284;2023-01-09T07:16:50;89.55;;;39.45;;
30818;SDS011;17546;42.674;23.284;2023-01-09T07:19:16;81.68;;;38.63;;
30818;SDS011;17546;42.674;23.284;2023-01-09T07:21:41;82.68;;;38.33;;
30818;SDS011;17546;42.674;23.284;2023-01-09T07:24:07;84.57;;;41.58;;
30818;SDS011;17546;42.674;23.284;2023-01-09T07:26:32;89.65;;;39.15;;
30818;SDS011;17546;42.674;23.284;2023-01-09T07:28:57;82.70;;;38.90;;
30818;SDS011;17546;42.674;23.284;2023-01-09T07:31:23;79.80;;;38.72;;
30818;SDS011;17546;42.674;23.284;2023-01-09T07:33:48;82.63;;;40.40;;
30818;SDS011;17546;42.674;23.284;2023-01-09T07:36:14;85.53;;;40.20;;
30818;SDS011;17546;42.674;23.284;2023-01-09T07:38:39;82.40;;;39.00;;
30818;SDS011;17546;42.674;23.284;2023-01-09T07:41:04;82.00;;;37.75;;
30818;SDS011;17546;42.674;23.284;2023-01-09T07:43:30;81.38;;;33.95;;
30818;SDS011;17546;42.674;23.284;2023-01-09T07:45:58;66.85;;;33.33;;
30818;SDS011;17546;42.674;23.284;2023-01-09T07:48:24;76.95;;;33.95;;
30818;SDS011;17546;42.674;23.284;2023-01-09T07:50:49;73.85;;;31.60;;
30818;SDS011;17546;42.674;23.284;2023-01-09T07:53:14;74.40;;;30.35;;
30818;SDS011;17546;42.674;23.284;2023-01-09T07:55:41;66.07;;;29.42;;
30818;SDS011;17546;42.674;23.284;2023-01-09T07:58:07;67.45;;;28.90;;
30818;SDS011;17546;42.674;23.284;2023-01-09T08:00:33;67.53;;;28.98;;
30818;SDS011;17546;42.674;23.284;2023-01-09T08:02:58;64.03;;;29.80;;
30818;SDS011;17546;42.674;23.284;2023-01-09T08:05:24;64.50;;;29.58;;
30818;SDS011;17546;42.674;23.284;2023-01-09T08:07:49;81.43;;;32.53;;
30818;SDS011;17546;42.674;23.284;2023-01-09T08:10:15;95.10;;;37.75;;
30818;SDS011;17546;42.674;23.284;2023-01-09T08:12:43;95.07;;;42.55;;
30818;SDS011;17546;42.674;23.284;2023-01-09T08:15:10;118.15;;;44.80;;
30818;SDS011;17546;42.674;23.284;2023-01-09T08:17:36;112.97;;;48.95;;
30818;SDS011;17546;42.674;23.284;2023-01-09T08:20:01;110.90;;;49.83;;
30818;SDS011;17546;42.674;23.284;2023-01-09T08:22:27;119.90;;;51.65;;
30818;SDS011;17546;42.674;23.284;2023-01-09T08:24:53;107.43;;;52.25;;
30818;SDS011;17546;42.674;23.284;2023-01-09T08:27:18;112.03;;;57.67;;
30818;SDS011;17546;42.674;23.284;2023-01-09T08:29:43;125.45;;;61.38;;
30818;SDS011;17546;42.674;23.284;2023-01-09T08:32:09;130.15;;;58.75;;
30818;SDS011;17546;42.674;23.284;2023-01-09T08:34:34;123.63;;;60.30;;
30818;SDS011;17546;42.674;23.284;2023-01-09T08:37:00;131.18;;;60.15;;
30818;SDS011;17546;42.674;23.284;2023-01-09T08:39:26;131.00;;;62.13;;
30818;SDS011;17546;42.674;23.284;2023-01-09T08:41:51;133.45;;;61.33;;
30818;SDS011;17546;42.674;23.284;2023-01-09T08:44:35;130.05;;;60.92;;
30818;SDS011;17546;42.674;23.284;2023-01-09T08:47:20;128.63;;;63.00;;
30818;SDS011;17546;42.674;23.284;2023-01-09T08:49:47;130.90;;;62.60;;
30818;SDS011;17546;42.674;23.284;2023-01-09T08:52:12;127.35;;;61.50;;
30818;SDS011;17546;42.674;23.284;2023-01-09T08:54:38;120.80;;;60.58;;
30818;SDS011;17546;42.674;23.284;2023-01-09T08:57:04;129.25;;;62.13;;
30818;SDS011;17546;42.674;23.284;2023-01-09T08:59:30;132.73;;;62.83;;
30818;SDS011;17546;42.674;23.284;2023-01-09T09:01:55;146.32;;;61.72;;
30818;SDS011;17546;42.674;23.284;2023-01-09T09:04:22;137.35;;;64.25;;
30818;SDS011;17546;42.674;23.284;2023-01-09T09:06:47;137.88;;;65.55;;
30818;SDS011;17546;42.674;23.284;2023-01-09T09:09:13;136.85;;;67.05;;
30818;SDS011;17546;42.674;23.284;2023-01-09T09:11:39;130.80;;;64.65;;
30818;SDS011;17546;42.674;23.284;2023-01-09T09:14:04;123.82;;;56.70;;
30818;SDS011;17546;42.674;23.284;2023-01-09T09:16:50;131.52;;;58.65;;
30818;SDS011;17546;42.674;23.284;2023-01-09T09:19:15;129.63;;;61.20;;
30818;SDS011;17546;42.674;23.284;2023-01-09T09:21:41;127.30;;;59.53;;
30818;SDS011;17546;42.674;23.284;2023-01-09T09:24:06;120.45;;;56.85;;
30818;SDS011;17546;42.674;23.284;2023-01-09T09:26:32;120.85;;;54.88;;
30818;SDS011;17546;42.674;23.284;2023-01-09T09:28:57;111.22;;;53.35;;
30818;SDS011;17546;42.674;23.284;2023-01-09T09:31:23;114.85;;;51.67;;
30818;SDS011;17546;42.674;23.284;2023-01-09T09:33:48;105.55;;;49.70;;
30818;SDS011;17546;42.674;23.284;2023-01-09T09:36:14;94.97;;;43.53;;
30818;SDS011;17546;42.674;23.284;2023-01-09T09:38:39;98.47;;;45.83;;
30818;SDS011;17546;42.674;23.284;2023-01-09T09:53:17;61.10;;;31.35;;
30818;SDS011;17546;42.674;23.284;2023-01-09T09:55:51;60.40;;;29.67;;
30818;SDS011;17546;42.674;23.284;2023-01-09T09:58:19;55.78;;;26.55;;
30818;SDS011;17546;42.674;23.284;2023-01-09T10:00:51;50.95;;;26.20;;
30818;SDS011;17546;42.674;23.284;2023-01-09T10:03:31;51.42;;;26.13;;
30818;SDS011;17546;42.674;23.284;2023-01-09T10:05:59;50.08;;;25.65;;
30818;SDS011;17546;42.674;23.284;2023-01-09T10:14:16;53.90;;;28.73;;
30818;SDS011;17546;42.674;23.284;2023-01-09T10:22:32;63.92;;;27.25;;
30818;SDS011;17546;42.674;23.284;2023-01-09T10:27:55;52.15;;;27.25;;
30818;SDS011;17546;42.674;23.284;2023-01-09T10:31:07;49.10;;;25.92;;
30818;SDS011;17546;42.674;23.284;2023-01-09T10:38:55;47.65;;;24.35;;
30818;SDS011;17546;42.674;23.284;2023-01-09T10:41:45;46.90;;;23.95;;
30818;SDS011;17546;42.674;23.284;2023-01-09T10:46:52;48.08;;;24.75;;
30818;SDS011;17546;42.674;23.284;2023-01-09T10:49:19;45.53;;;22.30;;
30818;SDS011;17546;42.674;23.284;2023-01-09T10:52:02;44.70;;;23.45;;
30818;SDS011;17546;42.674;23.284;2023-01-09T10:55:02;48.88;;;24.67;;
30818;SDS011;17546;42.674;23.284;2023-01-09T10:57:42;49.15;;;24.20;;
30818;SDS011;17546;42.674;23.284;2023-01-09T11:00:19;52.85;;;24.77;;
30818;SDS011;17546;42.674;23.284;2023-01-09T11:02:46;49.10;;;24.33;;
30818;SDS011;17546;42.674;23.284;2023-01-09T11:05:14;46.15;;;24.23;;
30818;SDS011;17546;42.674;23.284;2023-01-09T11:08:03;58.40;;;26.15;;
30818;SDS011;17546;42.674;23.284;2023-01-09T11:10:53;44.38;;;23.15;;
30818;SDS011;17546;42.674;23.284;2023-01-09T11:18:39;34.63;;;19.02;;
30818;SDS011;17546;42.674;23.284;2023-01-09T11:23:42;42.25;;;20.08;;
30818;SDS011;17546;42.674;23.284;2023-01-09T11:26:08;37.45;;;20.40;;
30818;SDS011;17546;42.674;23.284;2023-01-09T11:29:01;42.83;;;20.80;;
30818;SDS011;17546;42.674;23.284;2023-01-09T11:31:31;43.58;;;21.48;;
30818;SDS011;17546;42.674;23.284;2023-01-09T11:33:56;37.33;;;19.65;;
30818;SDS011;17546;42.674;23.284;2023-01-09T11:36:22;46.30;;;21.35;;
30818;SDS011;17546;42.674;23.284;2023-01-09T11:41:17;41.97;;;19.98;;
30818;SDS011;17546;42.674;23.284;2023-01-09T11:43:47;37.55;;;19.08;;
30818;SDS011;17546;42.674;23.284;2023-01-09T11:48:57;38.08;;;18.35;;
30818;SDS011;17546;42.674;23.284;2023-01-09T11:51:25;41.13;;;19.98;;
30818;SDS011;17546;42.674;23.284;2023-01-09T11:56:55;34.05;;;17.88;;
30818;SDS011;17546;42.674;23.284;2023-01-09T11:59:23;36.97;;;18.65;;
30818;SDS011;17546;42.674;23.284;2023-01-09T12:04:55;42.42;;;18.95;;
30818;SDS011;17546;42.674;23.284;2023-01-09T12:27:30;38.85;;;19.05;;
30818;SDS011;17546;42.674;23.284;2023-01-09T12:38:16;48.22;;;23.10;;
30818;SDS011;17546;42.674;23.284;2023-01-09T12:41:05;44.22;;;21.23;;
30818;SDS011;17546;42.674;23.284;2023-01-09T12:43:51;42.50;;;20.40;;
30818;SDS011;17546;42.674;23.284;2023-01-09T12:46:24;45.35;;;20.42;;
30818;SDS011;17546;42.674;23.284;2023-01-09T12:51:52;45.92;;;19.73;;
30818;SDS011;17546;42.674;23.284;2023-01-09T12:54:32;39.70;;;20.45;;
30818;SDS011;17546;42.674;23.284;2023-01-09T13:00:43;46.38;;;19.80;;
30818;SDS011;17546;42.674;23.284;2023-01-09T13:02:53;52.08;;;25.30;;
30818;SDS011;17546;42.674;23.284;2023-01-09T13:05:39;51.70;;;25.50;;
30818;SDS011;17546;42.674;23.284;2023-01-09T13:08:20;48.95;;;24.17;;
30818;SDS011;17546;42.674;23.284;2023-01-09T13:11:12;55.88;;;24.35;;
30818;SDS011;17546;42.674;23.284;2023-01-09T13:16:31;41.03;;;18.00;;
30818;SDS011;17546;42.674;23.284;2023-01-09T13:21:50;43.38;;;18.65;;
30818;SDS011;17546;42.674;23.284;2023-01-09T13:26:44;41.45;;;18.45;;
30818;SDS011;17546;42.674;23.284;2023-01-09T13:29:18;36.15;;;17.92;;
30818;SDS011;17546;42.674;23.284;2023-01-09T13:34:14;40.22;;;18.75;;
30818;SDS011;17546;42.674;23.284;2023-01-09T13:36:47;35.95;;;17.05;;
30818;SDS011;17546;42.674;23.284;2023-01-09T13:39:29;36.33;;;18.08;;
30818;SDS011;17546;42.674;23.284;2023-01-09T13:42:05;37.47;;;19.00;;
30818;SDS011;17546;42.674;23.284;2023-01-09T13:45:07;43.03;;;19.67;;
30818;SDS011;17546;42.674;23.284;2023-01-09T13:47:44;37.93;;;19.57;;
30818;SDS011;17546;42.674;23.284;2023-01-09T13:52:35;41.17;;;19.15;;
30818;SDS011;17546;42.674;23.284;2023-01-09T14:03:23;39.60;;;18.20;;
30818;SDS011;17546;42.674;23.284;2023-01-09T14:06:10;39.45;;;18.35;;
30818;SDS011;17546;42.674;23.284;2023-01-09T14:08:37;39.45;;;19.35;;
30818;SDS011;17546;42.674;23.284;2023-01-09T14:11:05;40.75;;;18.85;;
30818;SDS011;17546;42.674;23.284;2023-01-09T14:13:33;39.20;;;19.27;;
30818;SDS011;17546;42.674;23.284;2023-01-09T14:16:23;42.28;;;19.17;;
30818;SDS011;17546;42.674;23.284;2023-01-09T14:24:20;47.53;;;20.55;;
30818;SDS011;17546;42.674;23.284;2023-01-09T14:30:16;44.75;;;18.80;;
30818;SDS011;17546;42.674;23.284;2023-01-09T14:32:54;48.30;;;20.48;;
30818;SDS011;17546;42.674;23.284;2023-01-09T14:35:26;39.10;;;19.17;;
30818;SDS011;17546;42.674;23.284;2023-01-09T14:38:13;54.35;;;19.60;;
30818;SDS011;17546;42.674;23.284;2023-01-09T14:41:06;41.95;;;18.98;;
30818;SDS011;17546;42.674;23.284;2023-01-09T14:46:22;38.92;;;17.15;;
30818;SDS011;17546;42.674;23.284;2023-01-09T14:49:00;42.55;;;17.00;;
30818;SDS011;17546;42.674;23.284;2023-01-09T14:51:47;63.83;;;24.98;;
30818;SDS011;17546;42.674;23.284;2023-01-09T14:54:25;47.15;;;20.25;;
30818;SDS011;17546;42.674;23.284;2023-01-09T14:56:51;45.15;;;19.02;;
30818;SDS011;17546;42.674;23.284;2023-01-09T14:59:18;44.30;;;19.75;;
30818;SDS011;17546;42.674;23.284;2023-01-09T15:01:44;40.15;;;18.75;;
30818;SDS011;17546;42.674;23.284;2023-01-09T15:04:32;39.80;;;18.10;;
30818;SDS011;17546;42.674;23.284;2023-01-09T15:07:03;46.55;;;17.55;;
30818;SDS011;17546;42.674;23.284;2023-01-09T15:12:08;38.00;;;17.63;;
30818;SDS011;17546;42.674;23.284;2023-01-09T15:14:38;34.10;;;16.70;;
30818;SDS011;17546;42.674;23.284;2023-01-09T15:17:19;41.75;;;16.70;;
30818;SDS011;17546;42.674;23.284;2023-01-09T15:19:47;41.47;;;16.80;;
30818;SDS011;17546;42.674;23.284;2023-01-09T15:22:26;35.92;;;17.13;;
30818;SDS011;17546;42.674;23.284;2023-01-09T15:24:53;38.08;;;17.17;;
30818;SDS011;17546;42.674;23.284;2023-01-09T15:27:19;43.65;;;18.20;;
30818;SDS011;17546;42.674;23.284;2023-01-09T15:29:46;38.67;;;17.38;;
30818;SDS011;17546;42.674;23.284;2023-01-09T15:32:15;35.50;;;17.88;;
30818;SDS011;17546;42.674;23.284;2023-01-09T15:34:52;39.47;;;17.25;;
30818;SDS011;17546;42.674;23.284;2023-01-09T15:37:29;42.13;;;18.30;;
30818;SDS011;17546;42.674;23.284;2023-01-09T15:39:58;38.78;;;19.20;;
30818;SDS011;17546;42.674;23.284;2023-01-09T15:42:27;37.95;;;17.27;;
30818;SDS011;17546;42.674;23.284;2023-01-09T15:45:23;39.47;;;18.58;;
30818;SDS011;17546;42.674;23.284;2023-01-09T15:47:52;40.88;;;18.77;;
30818;SDS011;17546;42.674;23.284;2023-01-09T15:50:20;41.60;;;18.45;;
30818;SDS011;17546;42.674;23.284;2023-01-09T15:52:50;40.95;;;19.05;;
30818;SDS011;17546;42.674;23.284;2023-01-09T15:55:27;41.72;;;19.98;;
30818;SDS011;17546;42.674;23.284;2023-01-09T15:57:59;45.47;;;20.58;;
30818;SDS011;17546;42.674;23.284;2023-01-09T16:00:39;43.35;;;20.05;;
30818;SDS011;17546;42.674;23.284;2023-01-09T16:03:13;45.28;;;20.27;;
30818;SDS011;17546;42.674;23.284;2023-01-09T16:05:43;47.78;;;21.23;;
30818;SDS011;17546;42.674;23.284;2023-01-09T16:08:22;47.20;;;20.80;;
30818;SDS011;17546;42.674;23.284;2023-01-09T16:10:58;50.17;;;20.80;;
30818;SDS011;17546;42.674;23.284;2023-01-09T16:13:30;41.88;;;18.77;;
30818;SDS011;17546;42.674;23.284;2023-01-09T16:15:59;45.70;;;20.45;;
30818;SDS011;17546;42.674;23.284;2023-01-09T16:18:28;47.42;;;20.85;;
30818;SDS011;17546;42.674;23.284;2023-01-09T16:21:04;40.42;;;19.60;;
30818;SDS011;17546;42.674;23.284;2023-01-09T16:23:35;44.47;;;19.98;;
30818;SDS011;17546;42.674;23.284;2023-01-09T16:26:05;45.47;;;20.92;;
30818;SDS011;17546;42.674;23.284;2023-01-09T16:28:30;48.28;;;20.42;;
30818;SDS011;17546;42.674;23.284;2023-01-09T16:33:46;44.22;;;19.95;;
30818;SDS011;17546;42.674;23.284;2023-01-09T16:36:16;48.63;;;21.67;;
30818;SDS011;17546;42.674;23.284;2023-01-09T16:38:42;53.17;;;21.27;;
30818;SDS011;17546;42.674;23.284;2023-01-09T16:41:18;48.58;;;21.27;;
30818;SDS011;17546;42.674;23.284;2023-01-09T16:44:04;54.20;;;23.80;;
30818;SDS011;17546;42.674;23.284;2023-01-09T16:46:42;47.50;;;21.77;;
30818;SDS011;17546;42.674;23.284;2023-01-09T16:51:48;52.80;;;22.40;;
30818;SDS011;17546;42.674;23.284;2023-01-09T16:54:15;46.58;;;20.65;;
30818;SDS011;17546;42.674;23.284;2023-01-09T16:56:44;44.85;;;20.02;;
30818;SDS011;17546;42.674;23.284;2023-01-09T16:59:19;47.17;;;21.83;;
30818;SDS011;17546;42.674;23.284;2023-01-09T17:01:50;45.83;;;20.70;;
30818;SDS011;17546;42.674;23.284;2023-01-09T17:04:16;55.90;;;21.33;;
30818;SDS011;17546;42.674;23.284;2023-01-09T17:06:44;47.92;;;21.85;;
30818;SDS011;17546;42.674;23.284;2023-01-09T17:09:13;47.38;;;20.27;;
30818;SDS011;17546;42.674;23.284;2023-01-09T17:11:40;55.60;;;21.98;;
30818;SDS011;17546;42.674;23.284;2023-01-09T17:14:06;48.97;;;21.20;;
30818;SDS011;17546;42.674;23.284;2023-01-09T17:16:34;48.65;;;22.75;;
30818;SDS011;17546;42.674;23.284;2023-01-09T17:19:00;49.55;;;22.23;;
30818;SDS011;17546;42.674;23.284;2023-01-09T17:21:27;47.83;;;22.17;;
30818;SDS011;17546;42.674;23.284;2023-01-09T17:23:53;50.72;;;23.45;;
30818;SDS011;17546;42.674;23.284;2023-01-09T17:26:38;49.83;;;22.25;;
30818;SDS011;17546;42.674;23.284;2023-01-09T17:29:24;49.83;;;22.55;;
30818;SDS011;17546;42.674;23.284;2023-01-09T17:31:50;53.10;;;22.92;;
30818;SDS011;17546;42.674;23.284;2023-01-09T17:34:16;54.85;;;23.58;;
30818;SDS011;17546;42.674;23.284;2023-01-09T17:36:41;56.50;;;22.77;;
30818;SDS011;17546;42.674;23.284;2023-01-09T17:39:08;57.25;;;23.65;;
30818;SDS011;17546;42.674;23.284;2023-01-09T17:41:37;54.10;;;23.50;;
30818;SDS011;17546;42.674;23.284;2023-01-09T17:44:03;52.90;;;23.08;;
30818;SDS011;17546;42.674;23.284;2023-01-09T17:46:29;56.70;;;23.73;;
30818;SDS011;17546;42.674;23.284;2023-01-09T17:48:56;50.40;;;23.35;;
30818;SDS011;17546;42.674;23.284;2023-01-09T17:51:22;46.83;;;22.70;;
30818;SDS011;17546;42.674;23.284;2023-01-09T17:53:48;57.05;;;24.35;;
30818;SDS011;17546;42.674;23.284;2023-01-09T17:56:15;53.20;;;23.38;;
30818;SDS011;17546;42.674;23.284;2023-01-09T17:58:42;60.25;;;23.45;;
30818;SDS011;17546;42.674;23.284;2023-01-09T18:01:10;51.40;;;22.73;;
30818;SDS011;17546;42.674;23.284;2023-01-09T18:03:37;49.40;;;22.15;;
30818;SDS011;17546;42.674;23.284;2023-01-09T18:06:02;50.40;;;21.27;;
30818;SDS011;17546;42.674;23.284;2023-01-09T18:08:28;52.40;;;22.67;;
30818;SDS011;17546;42.674;23.284;2023-01-09T18:10:53;49.25;;;22.92;;
30818;SDS011;17546;42.674;23.284;2023-01-09T18:13:19;49.10;;;22.38;;
30818;SDS011;17546;42.674;23.284;2023-01-09T18:15:45;49.60;;;21.73;;
30818;SDS011;17546;42.674;23.284;2023-01-09T18:18:11;46.55;;;21.15;;
30818;SDS011;17546;42.674;23.284;2023-01-09T18:20:40;50.22;;;21.60;;
30818;SDS011;17546;42.674;23.284;2023-01-09T18:23:06;52.58;;;23.02;;
30818;SDS011;17546;42.674;23.284;2023-01-09T18:25:32;53.63;;;23.45;;
30818;SDS011;17546;42.674;23.284;2023-01-09T18:27:59;54.65;;;23.70;;
30818;SDS011;17546;42.674;23.284;2023-01-09T18:30:24;50.70;;;23.70;;
30818;SDS011;17546;42.674;23.284;2023-01-09T18:32:50;49.15;;;23.02;;
30818;SDS011;17546;42.674;23.284;2023-01-09T18:35:17;50.40;;;23.00;;
30818;SDS011;17546;42.674;23.284;2023-01-09T18:37:43;51.95;;;23.23;;
30818;SDS011;17546;42.674;23.284;2023-01-09T18:40:09;53.50;;;23.75;;
30818;SDS011;17546;42.674;23.284;2023-01-09T18:42:35;57.55;;;25.33;;
30818;SDS011;17546;42.674;23.284;2023-01-09T18:45:00;48.33;;;23.08;;
30818;SDS011;17546;42.674;23.284;2023-01-09T18:47:26;49.67;;;21.48;;
30818;SDS011;17546;42.674;23.284;2023-01-09T18:49:51;50.67;;;22.17;;
30818;SDS011;17546;42.674;23.284;2023-01-09T18:52:17;51.25;;;23.02;;
30818;SDS011;17546;42.674;23.284;2023-01-09T18:54:42;53.47;;;23.38;;
30818;SDS011;17546;42.674;23.284;2023-01-09T18:57:08;44.70;;;22.05;;
30818;SDS011;17546;42.674;23.284;2023-01-09T18:59:33;50.60;;;23.25;;
30818;SDS011;17546;42.674;23.284;2023-01-09T19:01:59;49.10;;;22.75;;
30818;SDS011;17546;42.674;23.284;2023-01-09T19:04:24;53.65;;;25.42;;
30818;SDS011;17546;42.674;23.284;2023-01-09T19:06:50;52.72;;;24.17;;
30818;SDS011;17546;42.674;23.284;2023-01-09T19:09:16;50.80;;;23.02;;
30818;SDS011;17546;42.674;23.284;2023-01-09T19:11:41;52.75;;;23.33;;
30818;SDS011;17546;42.674;23.284;2023-01-09T19:14:10;57.80;;;25.58;;
30818;SDS011;17546;42.674;23.284;2023-01-09T19:16:35;53.45;;;22.98;;
30818;SDS011;17546;42.674;23.284;2023-01-09T19:19:01;48.10;;;22.50;;
30818;SDS011;17546;42.674;23.284;2023-01-09T19:21:27;46.35;;;21.98;;
30818;SDS011;17546;42.674;23.284;2023-01-09T19:23:54;48.22;;;22.35;;
30818;SDS011;17546;42.674;23.284;2023-01-09T19:26:20;50.83;;;23.27;;